createdAt,value
2018-07-22T00:00:28.311Z,78.24
2018-07-22T00:01:44.807Z,78.06
2018-07-22T00:02:57.536Z,78.18
2018-07-22T00:04:43.967Z,78.26
2018-07-22T00:05:54.624Z,78.31
2018-07-22T00:07:07.092Z,78.34
2018-07-22T00:09:25.647Z,78.19
2018-07-22T00:15:52.617Z,78.09
2018-07-22T00:21:49.385Z,78.31
2018-07-22T00:22:55.762Z,78.40
2018-07-22T00:24:05.200Z,78.66
2018-07-22T00:30:00.984Z,78.76
2018-07-22T00:31:29.151Z,78.50
2018-07-22T00:38:21.747Z,78.40
2018-07-22T00:42:14.689Z,79.09
2018-07-22T00:48:59.933Z,79.57
2018-07-22T00:50:05.702Z,79.51
2018-07-22T00:51:11.913Z,79.64
2018-07-22T00:52:26.476Z,79.52
2018-07-22T00:53:42.212Z,79.38
2018-07-22T00:54:53.186Z,79.15
2018-07-22T00:55:59.262Z,79.15
2018-07-22T01:02:06.555Z,79.26
2018-07-22T01:03:25.401Z,79.93
2018-07-22T01:05:54.853Z,79.82
2018-07-22T01:08:25.491Z,79.86
2018-07-22T01:09:42.215Z,79.88
2018-07-22T01:10:48.873Z,80.02
2018-07-22T01:11:59.750Z,80.13
2018-07-22T01:13:10.032Z,80.01
2018-07-22T01:14:21.728Z,80.18
2018-07-22T01:15:29.016Z,80.28
2018-07-22T01:16:33.871Z,80.11
2018-07-22T01:17:39.734Z,80.17
2018-07-22T01:18:44.308Z,80.45
2018-07-22T01:19:49.591Z,80.16
2018-07-22T01:20:56.022Z,80.11
2018-07-22T01:22:00.829Z,80.13
2018-07-22T01:23:09.577Z,80.14
2018-07-22T01:24:15.422Z,80.12
2018-07-22T01:25:20.374Z,80.30
2018-07-22T01:26:26.537Z,80.35
2018-07-22T01:27:31.575Z,80.52
2018-07-22T01:28:36.295Z,80.39
2018-07-22T01:29:40.889Z,80.49
2018-07-22T01:30:46.333Z,80.52
2018-07-22T01:37:22.729Z,80.30
2018-07-22T01:38:28.614Z,80.42
2018-07-22T01:39:34.179Z,80.64
2018-07-22T01:40:39.817Z,80.63
2018-07-22T01:41:45.709Z,80.63
2018-07-22T01:42:50.719Z,80.62
2018-07-22T01:43:55.847Z,81.01
2018-07-22T01:45:00.986Z,80.67
2018-07-22T01:46:06.412Z,80.59
2018-07-22T01:47:13.083Z,80.77
2018-07-22T01:48:20.563Z,80.89
2018-07-22T01:50:51.328Z,80.99
2018-07-22T01:51:55.908Z,81.23
2018-07-22T01:53:01.505Z,81.26
2018-07-22T01:54:07.572Z,80.95
2018-07-22T01:55:21.410Z,81.13
2018-07-22T01:56:26.263Z,80.91
2018-07-22T01:57:31.623Z,80.81
2018-07-22T01:58:39.011Z,81.03
2018-07-22T01:59:45.881Z,81.71
2018-07-22T02:00:51.715Z,82.14
2018-07-22T02:01:57.489Z,82.61
2018-07-22T02:03:08.589Z,82.37
2018-07-22T02:04:14.390Z,82.69
2018-07-22T02:05:24.849Z,82.90
2018-07-22T02:07:43.309Z,82.76
2018-07-22T02:08:54.888Z,82.67
2018-07-22T02:10:01.679Z,82.55
2018-07-22T02:11:06.647Z,82.33
2018-07-22T02:12:11.621Z,82.24
2018-07-22T02:13:17.443Z,82.36
2018-07-22T02:14:22.540Z,82.38
2018-07-22T02:15:27.600Z,82.35
2018-07-22T02:16:33.526Z,82.39
2018-07-22T02:17:38.410Z,82.46
2018-07-22T02:18:43.393Z,82.34
2018-07-22T02:19:49.648Z,82.31
2018-07-22T02:20:56.542Z,82.51
2018-07-22T02:22:01.304Z,82.51
2018-07-22T02:23:12.818Z,82.46
2018-07-22T02:24:18.361Z,82.59
2018-07-22T02:25:25.281Z,82.46
2018-07-22T02:26:32.432Z,82.46
2018-07-22T02:27:37.253Z,82.27
2018-07-22T02:28:46.065Z,82.45
2018-07-22T02:29:51.184Z,82.58
2018-07-22T02:30:55.922Z,82.46
2018-07-22T02:32:01.341Z,82.58
2018-07-22T02:33:06.734Z,82.32
2018-07-22T02:34:12.010Z,82.41
2018-07-22T02:35:17.175Z,82.39
2018-07-22T02:36:21.873Z,82.24
2018-07-22T02:37:27.171Z,81.97
2018-07-22T02:38:32.354Z,82.10
2018-07-22T02:39:40.048Z,81.91
2018-07-22T02:40:45.947Z,82.01
2018-07-22T02:41:50.650Z,81.77
2018-07-22T02:42:56.815Z,81.92
2018-07-22T02:44:01.808Z,81.66
2018-07-22T02:45:08.427Z,81.82
2018-07-22T02:46:15.397Z,81.85
2018-07-22T02:47:20.111Z,81.84
2018-07-22T02:48:25.450Z,81.76
2018-07-22T02:49:32.944Z,81.66
2018-07-22T02:50:38.950Z,81.61
2018-07-22T02:51:45.741Z,81.67
2018-07-22T02:52:52.513Z,81.53
2018-07-22T02:53:59.662Z,81.44
2018-07-22T02:55:07.246Z,81.46
2018-07-22T02:56:12.543Z,81.49
2018-07-22T02:57:18.003Z,81.66
2018-07-22T02:58:23.376Z,81.72
2018-07-22T02:59:28.444Z,81.94
2018-07-22T03:00:34.237Z,81.91
2018-07-22T03:01:41.790Z,81.73
2018-07-22T03:02:46.912Z,81.99
2018-07-22T03:03:52.339Z,82.12
2018-07-22T03:04:56.954Z,82.25
2018-07-22T03:06:09.030Z,82.48
2018-07-22T03:07:18.399Z,82.50
2018-07-22T03:08:28.662Z,82.69
2018-07-22T03:09:34.307Z,82.89
2018-07-22T03:10:40.222Z,82.80
2018-07-22T03:11:45.739Z,82.69
2018-07-22T03:12:51.253Z,82.97
2018-07-22T03:13:56.179Z,82.96
2018-07-22T03:15:01.008Z,82.85
2018-07-22T03:16:06.830Z,82.96
2018-07-22T03:17:16.267Z,82.85
2018-07-22T03:18:27.640Z,82.83
2018-07-22T03:19:33.063Z,82.87
2018-07-22T03:20:37.831Z,82.72
2018-07-22T03:21:45.525Z,82.89
2018-07-22T03:22:52.748Z,82.77
2018-07-22T03:23:59.683Z,82.98
2018-07-22T03:25:05.932Z,82.82
2018-07-22T03:26:11.843Z,82.98
2018-07-22T03:27:16.839Z,82.61
2018-07-22T03:28:22.327Z,82.88
2018-07-22T03:29:28.455Z,83.07
2018-07-22T03:30:34.143Z,83.07
2018-07-22T03:31:39.395Z,83.11
2018-07-22T03:32:44.799Z,83.32
2018-07-22T03:33:56.212Z,83.51
2018-07-22T03:35:02.268Z,83.61
2018-07-22T03:36:09.456Z,83.65
2018-07-22T03:37:16.893Z,83.58
2018-07-22T03:38:24.270Z,83.45
2018-07-22T03:39:36.307Z,83.53
2018-07-22T03:40:41.841Z,83.63
2018-07-22T03:41:50.285Z,83.61
2018-07-22T03:42:55.266Z,83.77
2018-07-22T03:44:02.020Z,83.97
2018-07-22T03:45:12.476Z,84.07
2018-07-22T03:46:17.199Z,84.07
2018-07-22T03:47:22.586Z,84.25
2018-07-22T03:48:29.048Z,84.60
2018-07-22T03:49:34.299Z,84.35
2018-07-22T03:50:41.367Z,84.33
2018-07-22T03:51:47.318Z,84.40
2018-07-22T03:52:53.087Z,84.32
2018-07-22T03:53:57.780Z,84.52
2018-07-22T03:55:02.616Z,84.27
2018-07-22T03:56:10.472Z,84.17
2018-07-22T03:57:28.357Z,84.18
2018-07-22T03:58:35.975Z,84.31
2018-07-22T03:59:43.677Z,83.96
2018-07-22T04:00:48.806Z,84.09
2018-07-22T04:02:00.793Z,83.84
2018-07-22T04:03:09.184Z,84.05
2018-07-22T04:04:16.596Z,84.27
2018-07-22T04:05:21.199Z,84.28
2018-07-22T04:06:25.764Z,84.46
2018-07-22T04:07:33.345Z,84.43
2018-07-22T04:08:38.776Z,84.53
2018-07-22T04:09:45.494Z,84.50
2018-07-22T04:12:04.736Z,84.26
2018-07-22T04:13:11.021Z,84.57
2018-07-22T04:14:16.802Z,84.20
2018-07-22T04:15:21.477Z,84.21
2018-07-22T04:16:28.845Z,84.21
2018-07-22T04:17:35.991Z,84.23
2018-07-22T04:18:49.312Z,84.35
2018-07-22T04:19:54.356Z,84.28
2018-07-22T04:20:59.995Z,84.43
2018-07-22T04:22:05.415Z,84.36
2018-07-22T04:23:11.297Z,84.51
2018-07-22T04:24:16.217Z,84.58
2018-07-22T04:25:21.680Z,84.98
2018-07-22T04:26:27.304Z,84.98
2018-07-22T04:27:32.485Z,84.82
2018-07-22T04:28:37.285Z,84.79
2018-07-22T04:29:53.904Z,84.90
2018-07-22T04:30:59.581Z,84.74
2018-07-22T04:32:08.132Z,84.61
2018-07-22T04:33:13.451Z,84.84
2018-07-22T04:34:18.636Z,84.92
2018-07-22T04:35:24.452Z,84.87
2018-07-22T04:36:29.687Z,84.72
2018-07-22T04:37:40.633Z,84.80
2018-07-22T04:38:48.513Z,84.88
2018-07-22T04:39:55.679Z,84.92
2018-07-22T04:41:15.095Z,84.69
2018-07-22T04:42:22.518Z,84.78
2018-07-22T04:43:28.994Z,84.56
2018-07-22T04:44:35.704Z,84.29
2018-07-22T04:45:40.283Z,84.36
2018-07-22T04:46:51.402Z,84.25
2018-07-22T04:47:58.173Z,84.37
2018-07-22T04:49:05.136Z,84.41
2018-07-22T04:50:11.243Z,84.27
2018-07-22T04:51:18.841Z,84.10
2018-07-22T04:52:25.220Z,84.20
2018-07-22T04:53:30.554Z,84.12
2018-07-22T04:54:38.663Z,84.08
2018-07-22T04:55:44.305Z,84.02
2018-07-22T04:56:51.454Z,83.68
2018-07-22T04:57:56.114Z,83.59
2018-07-22T04:59:01.449Z,83.53
2018-07-22T05:00:07.542Z,83.35
2018-07-22T05:01:13.636Z,83.31
2018-07-22T05:02:18.359Z,83.35
2018-07-22T05:03:23.822Z,83.28
2018-07-22T05:04:31.270Z,83.10
2018-07-22T05:05:36.201Z,83.03
2018-07-22T05:06:44.653Z,82.76
2018-07-22T05:07:49.692Z,82.84
2018-07-22T05:08:59.651Z,82.81
2018-07-22T05:10:05.729Z,82.65
2018-07-22T05:11:13.490Z,82.53
2018-07-22T05:12:21.401Z,82.38
2018-07-22T05:13:26.262Z,82.48
2018-07-22T05:14:34.098Z,82.21
2018-07-22T05:15:41.603Z,82.03
2018-07-22T05:16:47.009Z,82.08
2018-07-22T05:17:53.582Z,82.01
2018-07-22T05:19:00.783Z,81.81
2018-07-22T05:20:05.991Z,81.92
2018-07-22T05:21:11.350Z,81.73
2018-07-22T05:22:17.391Z,81.68
2018-07-22T05:23:22.693Z,81.49
2018-07-22T05:24:28.324Z,81.40
2018-07-22T05:25:34.458Z,81.32
2018-07-22T05:26:41.632Z,81.83
2018-07-22T05:27:47.662Z,82.22
2018-07-22T05:29:01.115Z,82.47
2018-07-22T05:30:06.465Z,82.76
2018-07-22T05:31:12.333Z,83.06
2018-07-22T05:32:20.080Z,82.93
2018-07-22T05:33:25.094Z,83.07
2018-07-22T05:34:29.892Z,83.42
2018-07-22T05:35:34.807Z,83.46
2018-07-22T05:36:42.741Z,83.35
2018-07-22T05:37:47.955Z,83.22
2018-07-22T05:38:55.291Z,83.49
2018-07-22T05:40:03.341Z,83.49
2018-07-22T05:41:08.260Z,83.51
2018-07-22T05:42:14.437Z,83.63
2018-07-22T05:43:19.538Z,83.47
2018-07-22T05:44:28.438Z,83.40
2018-07-22T05:45:34.041Z,83.63
2018-07-22T05:46:39.111Z,83.57
2018-07-22T05:47:46.880Z,83.43
2018-07-22T05:48:52.225Z,83.35
2018-07-22T05:49:57.805Z,83.41
2018-07-22T05:51:02.653Z,83.29
2018-07-22T05:52:10.444Z,83.28
2018-07-22T05:53:15.965Z,83.33
2018-07-22T05:54:28.634Z,83.23
2018-07-22T05:55:39.381Z,83.25
2018-07-22T05:56:48.319Z,83.10
2018-07-22T05:57:57.684Z,83.06
2018-07-22T05:59:03.624Z,82.65
2018-07-22T06:00:09.126Z,83.16
2018-07-22T06:01:17.041Z,83.10
2018-07-22T06:02:26.651Z,83.19
2018-07-22T06:03:32.845Z,82.64
2018-07-22T06:04:37.802Z,82.44
2018-07-22T06:06:55.501Z,82.04
2018-07-22T06:08:00.374Z,82.09
2018-07-22T06:09:07.108Z,82.08
2018-07-22T06:10:11.880Z,82.15
2018-07-22T06:11:16.532Z,82.56
2018-07-22T06:12:23.211Z,82.34
2018-07-22T06:13:27.822Z,82.21
2018-07-22T06:14:32.551Z,81.87
2018-07-22T06:15:37.173Z,81.92
2018-07-22T06:16:41.786Z,81.97
2018-07-22T06:17:46.463Z,81.68
2018-07-22T06:18:51.372Z,81.43
2018-07-22T06:20:05.099Z,81.24
2018-07-22T06:21:10.129Z,81.18
2018-07-22T06:22:14.750Z,80.97
2018-07-22T06:23:19.675Z,80.62
2018-07-22T06:24:25.474Z,80.53
2018-07-22T06:25:30.740Z,80.33
2018-07-22T06:26:35.340Z,80.15
2018-07-22T06:27:43.581Z,80.11
2018-07-22T06:28:48.952Z,80.30
2018-07-22T06:29:53.540Z,80.21
2018-07-22T06:30:59.088Z,80.13
2018-07-22T06:32:04.676Z,79.83
2018-07-22T06:33:09.600Z,79.37
2018-07-22T06:34:14.545Z,79.08
2018-07-22T06:35:19.202Z,79.31
2018-07-22T06:36:24.452Z,78.88
2018-07-22T06:37:29.793Z,79.00
2018-07-22T06:38:35.019Z,79.10
2018-07-22T06:39:40.828Z,78.81
2018-07-22T06:40:46.292Z,78.85
2018-07-22T06:41:50.838Z,78.93
2018-07-22T06:42:55.458Z,78.77
2018-07-22T06:44:01.365Z,78.51
2018-07-22T06:45:07.070Z,78.82
2018-07-22T06:46:16.558Z,79.50
2018-07-22T06:47:21.359Z,79.30
2018-07-22T06:48:26.039Z,79.16
2018-07-22T06:49:31.212Z,79.20
2018-07-22T06:50:37.517Z,79.90
2018-07-22T06:51:42.580Z,80.00
2018-07-22T06:52:49.151Z,79.95
2018-07-22T06:53:54.488Z,79.44
2018-07-22T06:54:59.427Z,79.22
2018-07-22T06:56:04.150Z,79.14
2018-07-22T06:57:09.718Z,78.95
2018-07-22T06:58:15.010Z,78.55
2018-07-22T06:59:19.739Z,78.30
2018-07-22T07:00:24.526Z,77.98
2018-07-22T07:01:29.978Z,77.51
2018-07-22T07:02:35.195Z,76.95
2018-07-22T07:03:40.176Z,76.08
2018-07-22T07:04:45.668Z,76.65
2018-07-22T07:05:50.409Z,76.49
2018-07-22T07:06:55.140Z,76.14
2018-07-22T07:07:59.825Z,75.68
2018-07-22T07:09:09.553Z,75.51
2018-07-22T07:10:15.586Z,75.54
2018-07-22T07:11:21.352Z,75.04
2018-07-22T07:12:28.329Z,74.70
2018-07-22T07:13:43.188Z,74.60
2018-07-22T07:14:48.921Z,74.08
2018-07-22T07:15:54.513Z,73.64
2018-07-22T07:17:00.052Z,73.02
2018-07-22T07:18:04.946Z,73.01
2018-07-22T07:19:11.208Z,73.81
2018-07-22T07:20:17.272Z,74.49
2018-07-22T07:21:22.593Z,74.90
2018-07-22T07:22:28.062Z,75.01
2018-07-22T07:23:33.846Z,75.22
2018-07-22T07:24:39.830Z,74.75
2018-07-22T07:25:44.792Z,74.43
2018-07-22T07:26:49.744Z,74.39
2018-07-22T07:27:55.229Z,73.82
2018-07-22T07:29:00.160Z,73.73
2018-07-22T07:30:05.380Z,73.32
2018-07-22T07:31:10.256Z,73.12
2018-07-22T07:32:16.342Z,72.92
2018-07-22T07:33:22.816Z,73.01
2018-07-22T07:34:38.509Z,73.09
2018-07-22T07:35:43.236Z,72.69
2018-07-22T07:36:50.327Z,72.64
2018-07-22T07:37:55.133Z,72.81
2018-07-22T07:38:59.934Z,73.08
2018-07-22T07:40:04.800Z,72.87
2018-07-22T07:41:11.856Z,71.80
2018-07-22T07:42:17.992Z,71.71
2018-07-22T07:43:23.597Z,71.74
2018-07-22T07:44:29.351Z,72.01
2018-07-22T07:45:34.206Z,72.22
2018-07-22T07:46:39.381Z,71.43
2018-07-22T07:47:44.945Z,71.33
2018-07-22T07:48:53.327Z,70.57
2018-07-22T07:50:00.458Z,69.97
2018-07-22T07:51:06.164Z,69.99
2018-07-22T07:52:11.491Z,69.33
2018-07-22T07:53:16.444Z,69.09
2018-07-22T07:54:21.662Z,68.29
2018-07-22T07:55:27.284Z,67.95
2018-07-22T07:56:32.076Z,68.34
2018-07-22T07:57:38.878Z,67.95
2018-07-22T07:58:43.596Z,67.86
2018-07-22T07:59:49.234Z,67.62
2018-07-22T08:00:54.384Z,67.32
2018-07-22T08:01:59.095Z,66.87
2018-07-22T08:03:03.791Z,66.99
2018-07-22T08:04:08.526Z,67.15
2018-07-22T08:05:15.341Z,100.00
2018-07-22T08:06:20.589Z,68.27
2018-07-22T08:07:25.285Z,67.84
2018-07-22T08:08:30.341Z,67.56
2018-07-22T08:09:35.104Z,66.93
2018-07-22T08:10:39.779Z,66.89
2018-07-22T08:11:44.826Z,66.88
2018-07-22T08:12:50.522Z,67.07
2018-07-22T08:13:55.466Z,67.02
2018-07-22T08:15:02.242Z,66.56
2018-07-22T08:16:07.784Z,66.13
2018-07-22T08:17:13.955Z,66.37
2018-07-22T08:18:19.856Z,66.31
2018-07-22T08:19:24.670Z,65.80
2018-07-22T08:20:29.371Z,65.64
2018-07-22T08:21:34.219Z,65.23
2018-07-22T08:22:39.700Z,64.20
2018-07-22T08:23:45.413Z,64.55
2018-07-22T08:24:52.177Z,64.55
2018-07-22T08:25:58.385Z,64.19
2018-07-22T08:27:03.092Z,64.28
2018-07-22T08:28:08.113Z,64.18
2018-07-22T08:29:27.760Z,63.78
2018-07-22T08:30:32.785Z,62.66
2018-07-22T08:31:37.529Z,62.29
2018-07-22T08:32:43.503Z,62.38
2018-07-22T08:33:49.285Z,62.34
2018-07-22T08:34:54.540Z,62.27
2018-07-22T08:36:01.107Z,61.68
2018-07-22T08:37:10.523Z,60.84
2018-07-22T08:38:15.243Z,60.01
2018-07-22T08:39:24.304Z,59.91
2018-07-22T08:40:30.029Z,59.51
2018-07-22T08:41:34.745Z,58.66
2018-07-22T08:42:41.263Z,59.08
2018-07-22T08:43:47.824Z,59.08
2018-07-22T08:44:56.434Z,59.06
2018-07-22T08:46:03.460Z,58.88
2018-07-22T08:47:08.431Z,58.49
2018-07-22T08:48:13.195Z,58.20
2018-07-22T08:49:18.661Z,57.81
2018-07-22T08:50:23.942Z,57.42
2018-07-22T08:51:29.174Z,57.07
2018-07-22T08:52:33.937Z,56.74
2018-07-22T08:53:40.144Z,56.82
2018-07-22T08:54:45.861Z,56.36
2018-07-22T08:55:51.320Z,56.11
2018-07-22T08:56:56.440Z,56.29
2018-07-22T08:58:01.488Z,55.57
2018-07-22T08:59:06.437Z,54.69
2018-07-22T09:00:12.682Z,54.08
2018-07-22T09:01:18.408Z,54.48
2018-07-22T09:02:23.712Z,55.46
2018-07-22T09:03:30.788Z,54.86
2018-07-22T09:04:36.024Z,55.22
2018-07-22T09:05:41.526Z,55.09
2018-07-22T09:06:47.212Z,54.88
2018-07-22T09:07:54.217Z,55.54
2018-07-22T09:08:59.424Z,55.78
2018-07-22T09:10:12.612Z,56.03
2018-07-22T09:11:18.850Z,56.31
2018-07-22T09:12:23.774Z,56.90
2018-07-22T09:13:29.837Z,58.00
2018-07-22T09:14:34.770Z,58.64
2018-07-22T09:15:41.659Z,58.13
2018-07-22T09:16:48.401Z,58.04
2018-07-22T09:17:53.549Z,58.47
2018-07-22T09:18:58.538Z,58.73
2018-07-22T09:20:05.388Z,58.19
2018-07-22T09:21:10.231Z,57.98
2018-07-22T09:22:15.878Z,57.71
2018-07-22T09:23:22.037Z,56.62
2018-07-22T09:24:26.940Z,56.44
2018-07-22T09:25:32.465Z,56.22
2018-07-22T09:26:38.322Z,56.07
2018-07-22T09:27:44.482Z,56.18
2018-07-22T09:28:50.316Z,56.58
2018-07-22T09:29:55.443Z,57.48
2018-07-22T09:31:00.489Z,57.10
2018-07-22T09:32:05.909Z,57.01
2018-07-22T09:33:13.090Z,57.01
2018-07-22T09:34:20.045Z,57.11
2018-07-22T09:35:26.733Z,57.60
2018-07-22T09:36:31.868Z,57.88
2018-07-22T09:37:37.435Z,57.91
2018-07-22T09:38:43.760Z,57.57
2018-07-22T09:39:49.573Z,58.63
2018-07-22T09:40:55.104Z,58.76
2018-07-22T09:41:59.895Z,58.04
2018-07-22T09:43:05.050Z,57.20
2018-07-22T09:44:09.972Z,57.29
2018-07-22T09:45:16.823Z,57.56
2018-07-22T09:46:22.539Z,57.05
2018-07-22T09:47:27.400Z,56.30
2018-07-22T09:48:34.130Z,55.80
2018-07-22T09:49:40.755Z,55.40
2018-07-22T09:50:46.147Z,55.98
2018-07-22T09:51:55.665Z,57.14
2018-07-22T09:53:01.665Z,57.77
2018-07-22T09:54:06.602Z,57.63
2018-07-22T09:55:11.298Z,57.19
2018-07-22T09:56:18.402Z,56.73
2018-07-22T09:57:23.175Z,56.25
2018-07-22T09:58:29.141Z,55.60
2018-07-22T09:59:33.995Z,56.12
2018-07-22T10:00:44.616Z,55.70
2018-07-22T10:01:49.522Z,55.03
2018-07-22T10:02:54.320Z,54.19
2018-07-22T10:04:01.021Z,54.14
2018-07-22T10:05:20.348Z,53.68
2018-07-22T10:06:25.825Z,53.79
2018-07-22T10:07:33.232Z,53.16
2018-07-22T10:08:39.061Z,53.86
2018-07-22T10:09:49.231Z,53.64
2018-07-22T10:10:54.411Z,52.92
2018-07-22T10:13:15.350Z,53.45
2018-07-22T10:14:21.688Z,53.95
2018-07-22T10:15:26.322Z,53.78
2018-07-22T10:16:31.000Z,52.91
2018-07-22T10:17:35.640Z,52.60
2018-07-22T10:18:41.081Z,52.00
2018-07-22T10:19:45.724Z,51.60
2018-07-22T10:20:51.862Z,52.37
2018-07-22T10:21:56.655Z,52.15
2018-07-22T10:23:02.374Z,52.29
2018-07-22T10:24:07.113Z,51.94
2018-07-22T10:25:12.151Z,51.42
2018-07-22T10:26:16.993Z,51.12
2018-07-22T10:27:23.260Z,51.01
2018-07-22T10:28:28.026Z,51.13
2018-07-22T10:29:33.774Z,50.26
2018-07-22T10:30:38.523Z,50.27
2018-07-22T10:31:44.155Z,51.98
2018-07-22T10:32:49.650Z,54.61
2018-07-22T10:33:54.823Z,55.41
2018-07-22T10:35:00.660Z,55.05
2018-07-22T10:36:09.554Z,55.36
2018-07-22T10:37:14.493Z,54.73
2018-07-22T10:38:20.216Z,54.27
2018-07-22T10:39:25.074Z,53.83
2018-07-22T10:40:30.207Z,54.06
2018-07-22T10:41:37.791Z,53.98
2018-07-22T10:42:46.861Z,53.07
2018-07-22T10:43:54.816Z,52.35
2018-07-22T10:45:00.327Z,51.37
2018-07-22T10:46:06.058Z,51.30
2018-07-22T10:47:15.835Z,51.13
2018-07-22T10:48:20.837Z,50.46
2018-07-22T10:49:25.642Z,51.12
2018-07-22T10:50:30.353Z,51.96
2018-07-22T10:51:36.064Z,52.04
2018-07-22T10:52:42.013Z,52.62
2018-07-22T10:53:47.436Z,52.02
2018-07-22T10:54:52.206Z,51.42
2018-07-22T10:55:56.922Z,51.08
2018-07-22T10:57:01.709Z,51.06
2018-07-22T10:58:06.553Z,50.74
2018-07-22T10:59:11.347Z,51.00
2018-07-22T11:00:16.480Z,51.48
2018-07-22T11:01:21.619Z,51.11
2018-07-22T11:02:28.037Z,50.60
2018-07-22T11:03:33.744Z,50.98
2018-07-22T11:04:40.734Z,50.40
2018-07-22T11:05:46.613Z,50.79
2018-07-22T11:06:52.685Z,50.89
2018-07-22T11:08:16.283Z,50.94
2018-07-22T11:09:25.627Z,51.24
2018-07-22T11:10:33.443Z,51.43
2018-07-22T11:11:40.523Z,50.92
2018-07-22T11:12:46.080Z,49.93
2018-07-22T11:13:51.208Z,49.49
2018-07-22T11:14:55.896Z,48.82
2018-07-22T11:16:02.639Z,48.35
2018-07-22T11:17:08.597Z,48.76
2018-07-22T11:18:14.116Z,49.67
2018-07-22T11:19:18.882Z,49.54
2018-07-22T11:20:27.493Z,49.45
2018-07-22T11:21:32.465Z,48.83
2018-07-22T11:22:38.128Z,48.18
2018-07-22T11:23:44.042Z,48.11
2018-07-22T11:24:49.296Z,47.65
2018-07-22T11:25:56.915Z,47.14
2018-07-22T11:27:05.431Z,47.41
2018-07-22T11:28:12.850Z,49.01
2018-07-22T11:29:17.512Z,51.19
2018-07-22T11:30:22.884Z,51.35
2018-07-22T11:31:29.202Z,51.59
2018-07-22T11:32:33.912Z,52.40
2018-07-22T11:34:54.367Z,51.33
2018-07-22T11:35:59.064Z,51.44
2018-07-22T11:37:04.558Z,50.91
2018-07-22T11:38:11.275Z,50.70
2018-07-22T11:39:17.207Z,49.96
2018-07-22T11:40:23.874Z,49.45
2018-07-22T11:41:28.660Z,49.35
2018-07-22T11:42:33.987Z,49.69
2018-07-22T11:43:55.274Z,49.85
2018-07-22T11:45:00.554Z,50.02
2018-07-22T11:46:05.373Z,50.71
2018-07-22T11:47:10.512Z,50.27
2018-07-22T11:48:16.658Z,50.31
2018-07-22T11:49:23.178Z,50.04
2018-07-22T11:50:28.015Z,49.86
2018-07-22T11:51:33.282Z,49.81
2018-07-22T11:52:39.438Z,49.50
2018-07-22T11:53:47.793Z,49.13
2018-07-22T11:54:54.672Z,49.63
2018-07-22T11:56:00.451Z,49.58
2018-07-22T11:57:06.026Z,49.51
2018-07-22T11:58:11.372Z,49.72
2018-07-22T11:59:18.863Z,49.30
2018-07-22T12:00:26.506Z,48.76
2018-07-22T12:01:32.624Z,49.29
2018-07-22T12:02:40.407Z,49.51
2018-07-22T12:03:46.683Z,49.33
2018-07-22T12:05:00.524Z,49.02
2018-07-22T12:06:09.414Z,49.46
2018-07-22T12:07:15.884Z,50.24
2018-07-22T12:08:21.120Z,50.23
2018-07-22T12:09:26.854Z,50.32
2018-07-22T12:10:36.778Z,49.90
2018-07-22T12:11:41.384Z,49.64
2018-07-22T12:12:46.586Z,49.02
2018-07-22T12:13:53.250Z,48.74
2018-07-22T12:14:58.961Z,48.37
2018-07-22T12:16:09.778Z,48.54
2018-07-22T12:17:18.126Z,48.80
2018-07-22T12:18:23.893Z,48.47
2018-07-22T12:19:29.645Z,48.12
2018-07-22T12:20:37.082Z,48.00
2018-07-22T12:21:41.832Z,47.83
2018-07-22T12:22:50.918Z,47.49
2018-07-22T12:23:59.835Z,46.51
2018-07-22T12:25:04.930Z,46.57
2018-07-22T12:26:13.371Z,46.27
2018-07-22T12:27:25.235Z,46.13
2018-07-22T12:28:31.088Z,46.03
2018-07-22T12:29:36.837Z,44.98
2018-07-22T12:30:42.673Z,45.35
2018-07-22T12:31:49.832Z,44.82
2018-07-22T12:32:56.762Z,44.65
2018-07-22T12:34:09.476Z,43.89
2018-07-22T12:35:16.462Z,43.16
2018-07-22T12:36:21.295Z,42.32
2018-07-22T12:37:31.611Z,42.12
2018-07-22T12:38:43.782Z,42.04
2018-07-22T12:39:55.785Z,42.58
2018-07-22T12:41:03.634Z,42.30
2018-07-22T12:42:08.355Z,42.39
2018-07-22T12:43:16.962Z,42.73
2018-07-22T12:44:22.881Z,42.53
2018-07-22T12:45:29.804Z,42.30
2018-07-22T12:46:35.054Z,42.53
2018-07-22T12:47:39.814Z,42.27
2018-07-22T12:48:45.304Z,42.07
2018-07-22T12:49:50.535Z,42.56
2018-07-22T12:51:16.183Z,42.22
2018-07-22T12:52:34.561Z,41.69
2018-07-22T12:53:45.368Z,41.23
2018-07-22T12:54:55.582Z,40.70
2018-07-22T12:56:16.599Z,40.61
2018-07-22T12:57:31.755Z,40.70
2018-07-22T12:58:40.520Z,40.91
2018-07-22T12:59:48.363Z,41.49
2018-07-22T13:01:03.084Z,41.72
2018-07-22T13:02:14.070Z,41.05
2018-07-22T13:03:31.595Z,41.02
2018-07-22T13:04:36.823Z,40.77
2018-07-22T13:05:48.111Z,41.18
2018-07-22T13:06:57.692Z,40.63
2018-07-22T13:08:04.152Z,40.16
2018-07-22T13:09:12.436Z,39.99
2018-07-22T13:10:26.289Z,39.99
2018-07-22T13:11:32.331Z,39.78
2018-07-22T13:12:37.450Z,39.60
2018-07-22T13:13:43.702Z,38.98
2018-07-22T13:14:50.009Z,39.10
2018-07-22T13:15:55.899Z,39.02
2018-07-22T13:17:02.791Z,38.79
2018-07-22T13:18:07.865Z,38.67
2018-07-22T13:19:13.063Z,38.53
2018-07-22T13:20:22.708Z,38.19
2018-07-22T13:21:28.318Z,37.74
2018-07-22T13:22:34.622Z,37.80
2018-07-22T13:23:40.612Z,37.12
2018-07-22T13:24:45.893Z,37.02
2018-07-22T13:25:50.969Z,37.09
2018-07-22T13:26:57.448Z,37.33
2018-07-22T13:28:02.834Z,37.64
2018-07-22T13:29:09.828Z,37.71
2018-07-22T13:30:15.364Z,37.67
2018-07-22T13:31:20.527Z,38.13
2018-07-22T13:32:25.673Z,38.43
2018-07-22T13:33:32.297Z,38.51
2018-07-22T13:34:38.404Z,38.60
2018-07-22T13:35:44.664Z,38.83
2018-07-22T13:36:51.006Z,38.93
2018-07-22T13:37:56.562Z,38.89
2018-07-22T13:39:12.416Z,39.22
2018-07-22T13:40:17.812Z,39.28
2018-07-22T13:41:23.310Z,39.22
2018-07-22T13:42:30.368Z,39.13
2018-07-22T13:43:35.455Z,39.53
2018-07-22T13:44:41.368Z,39.21
2018-07-22T13:45:46.609Z,38.78
2018-07-22T13:47:03.624Z,38.50
2018-07-22T13:48:09.522Z,38.22
2018-07-22T13:49:14.351Z,38.17
2018-07-22T13:50:19.071Z,38.04
2018-07-22T13:51:26.006Z,38.11
2018-07-22T13:52:31.744Z,37.88
2018-07-22T13:53:37.546Z,38.23
2018-07-22T13:54:44.429Z,37.95
2018-07-22T13:55:50.834Z,38.03
2018-07-22T13:56:56.342Z,38.11
2018-07-22T13:58:01.365Z,38.16
2018-07-22T13:59:06.826Z,38.62
2018-07-22T14:00:12.300Z,38.58
2018-07-22T14:01:18.843Z,38.53
2018-07-22T14:02:24.557Z,38.47
2018-07-22T14:03:30.262Z,38.47
2018-07-22T14:04:37.970Z,38.23
2018-07-22T14:05:42.557Z,38.29
2018-07-22T14:06:47.237Z,38.07
2018-07-22T14:07:52.487Z,38.17
2018-07-22T14:08:57.913Z,38.08
2018-07-22T14:10:03.127Z,38.21
2018-07-22T14:11:13.274Z,37.78
2018-07-22T14:12:19.224Z,37.76
2018-07-22T14:13:25.782Z,37.82
2018-07-22T14:14:31.590Z,37.33
2018-07-22T14:15:37.431Z,37.23
2018-07-22T14:16:45.041Z,36.71
2018-07-22T14:17:51.482Z,36.88
2018-07-22T14:18:57.248Z,35.77
2018-07-22T14:20:02.552Z,35.52
2018-07-22T14:21:08.124Z,34.63
2018-07-22T14:22:12.746Z,33.60
2018-07-22T14:23:21.253Z,33.57
2018-07-22T14:24:30.523Z,34.37
2018-07-22T14:25:35.303Z,35.10
2018-07-22T14:26:40.700Z,35.02
2018-07-22T14:27:46.389Z,35.18
2018-07-22T14:28:52.340Z,35.90
2018-07-22T14:29:57.847Z,36.18
2018-07-22T14:31:02.493Z,36.52
2018-07-22T14:32:07.200Z,38.03
2018-07-22T14:33:11.790Z,38.75
2018-07-22T14:34:16.509Z,39.50
2018-07-22T14:35:22.383Z,43.25
2018-07-22T14:36:27.551Z,45.87
2018-07-22T14:37:34.757Z,47.64
2018-07-22T14:38:39.413Z,49.35
2018-07-22T14:39:46.666Z,50.04
2018-07-22T14:40:54.024Z,51.03
2018-07-22T14:42:07.710Z,52.00
2018-07-22T14:43:13.458Z,51.71
2018-07-22T14:44:25.805Z,51.74
2018-07-22T14:45:32.046Z,51.39
2018-07-22T14:46:37.329Z,51.03
2018-07-22T14:47:46.565Z,51.00
2018-07-22T14:48:53.279Z,50.70
2018-07-22T14:49:59.297Z,50.39
2018-07-22T14:51:06.485Z,50.40
2018-07-22T14:52:11.537Z,50.26
2018-07-22T14:53:17.324Z,50.30
2018-07-22T14:54:23.189Z,50.13
2018-07-22T14:55:28.999Z,50.14
2018-07-22T14:56:34.572Z,50.06
2018-07-22T14:57:40.302Z,50.19
2018-07-22T14:58:52.605Z,50.61
2018-07-22T14:59:58.388Z,50.96
2018-07-22T15:01:03.106Z,51.21
2018-07-22T15:02:09.033Z,51.30
2018-07-22T15:03:14.722Z,51.42
2018-07-22T15:05:32.594Z,51.26
2018-07-22T15:06:37.198Z,49.88
2018-07-22T15:07:41.814Z,48.49
2018-07-22T15:08:47.742Z,48.32
2018-07-22T15:09:52.481Z,47.56
2018-07-22T15:10:57.046Z,47.29